Saturday, December 15, 2018, 8:45 AM EST
Back to Local

KCAR, Caribou Municipal Airport

Location: Caribou, ME, United States Lat: 46.867
Local Time: 8:45 AM EST (13:45 GMT) Lon: -68.017
Time Zone: US/Eastern Elev: 626 ft

Show me the last for .
Show Decoded

2018-12-15 07:54 METAR KCAR 151254Z AUTO 26009KT 10SM OVC037 02/M01 A2997 RMK AO2 RAB01E11 SLP160
                 P0000 T00221011 =
2018-12-15 07:11 METAR KCAR 151211Z AUTO 25005KT 10SM FEW020 FEW026 OVC033 01/00 A2996 RMK AO2
                 RAB01E11 P0000 T00110000 =
2018-12-15 06:54 METAR KCAR 151154Z AUTO 24005KT 9SM SCT014 BKN026 OVC034 01/00 A2995 RMK AO2
                 RAB1057E39B48E51UPB1058E1059SNB39E48 SLP151 P0001 60001 70014 I1000 I6000
                 T00110000 10011 20000 53005 =
2018-12-15 06:44 METAR KCAR 151144Z AUTO 21005KT 4SM -SN BR BKN015 BKN021 OVC027 01/M01 A2995 RMK
                 AO2 RAB1057E39UPB1058E1059SNB39 P0001 I1000 T00111006 =
2018-12-15 05:54 METAR KCAR 151054Z AUTO 00000KT 9SM OVC012 01/M01 A2993 RMK AO2 SLP148 T00111006
                 =
2018-12-15 05:46 METAR KCAR 151046Z AUTO 00000KT 9SM BKN014 OVC019 01/00 A2993 RMK AO2 T00110000
                 =
2018-12-15 04:54 METAR KCAR 150954Z AUTO 22004KT 10SM FEW008 BKN018 OVC027 01/M01 A2993 RMK AO2
                 SLP147 T00061006 =
2018-12-15 04:45 METAR KCAR 150945Z AUTO 22005KT 10SM SCT008 OVC018 01/M01 A2993 RMK AO2
                 T00061006 =
2018-12-15 04:21 METAR KCAR 150921Z AUTO 23004KT 10SM BKN009 OVC017 01/M01 A2993 RMK AO2
                 T00061006 =
2018-12-15 04:07 METAR KCAR 150907Z AUTO 22006KT 10SM FEW009 OVC017 01/M01 A2993 RMK AO2
                 T00061011 =
2018-12-15 03:54 METAR KCAR 150854Z AUTO 21006KT 10SM BKN018 OVC024 01/M01 A2993 RMK AO2 SLP147
                 60000 T00061011 56013 =
2018-12-15 02:54 METAR KCAR 150754Z AUTO 21008KT 8SM FEW006 SCT010 OVC020 01/M01 A2994 RMK AO2
                 SNE34 SLP150 P0000 T00061011 =
2018-12-15 02:33 METAR KCAR 150733Z AUTO 20005KT 4SM -SN BR OVC009 00/M01 A2994 RMK AO2 CIG
                 005V012 P0000 T00001011 =
2018-12-15 01:54 METAR KCAR 150654Z AUTO 19005KT 2 1/2SM -SN BR OVC007 00/M02 A2996 RMK AO2
                 SNE18B47 CIG 005V011 SLP157 P0000 T00001017 =
2018-12-15 01:11 METAR KCAR 150611Z AUTO 19006KT 4SM -SN BR OVC009 00/M02 A2996 RMK AO2 CIG
                 005V011 P0000 T00001017 =
2018-12-15 00:54 METAR KCAR 150554Z AUTO 19007KT 2 1/2SM -SN BR OVC009 00/M02 A2997 RMK AO2
                 SNE12B41 CIG 005V012 SLP162 P0001 60011 T00001017 10000 21028 56019 =
2018-12-15 00:19 METAR KCAR 150519Z AUTO 19008KT 7SM BKN007 OVC011 M01/M02 A2998 RMK AO2 SNE12
                 CIG 005V009 P0001 T10061017 =
2018-12-15 00:04 METAR KCAR 150504Z AUTO 19009KT 4SM -SN BR OVC005 M01/M02 A2999 RMK AO2 P0001
                 T10061022 =
2018-12-14 23:54 METAR KCAR 150454Z AUTO 19007KT 2 1/2SM -SN BR OVC005 M01/M02 A2999 RMK AO2
                 SLP168 P0001 T10061017 410061222 =
2018-12-14 23:29 METAR KCAR 150429Z AUTO 19009KT 3SM -SN BR BKN005 BKN036 OVC055 M01/M02 A3000
                 RMK AO2 P0001 T10061022 =
2018-12-14 23:06 METAR KCAR 150406Z AUTO 20008KT 1 1/2SM -SN BR BKN005 OVC019 M01/M02 A3002 =
2018-12-14 22:54 METAR KCAR 150354Z AUTO 19006KT 1 1/4SM -SN BR OVC005 M01/M02 A3003 RMK AO2
                 SLP181 P0003 T10061022 =
2018-12-14 22:52 METAR KCAR 150352Z AUTO 19007KT 1 1/4SM -SN BR OVC005 M01/M02 A3003 RMK AO2
                 P0003 =
2018-12-14 22:09 METAR KCAR 150309Z AUTO 19007KT 1SM -SN BR OVC006 M01/M03 A3005 RMK AO2 P0001
                 T10111028 =
2018-12-14 21:54 METAR KCAR 150254Z AUTO 20005KT 1 1/2SM -SN BR OVC006 M01/M03 A3007 RMK AO2
                 SLP196 P0002 60006 T10111028 58031 =
2018-12-14 21:39 METAR KCAR 150239Z AUTO 20006KT 1 3/4SM -SN BR OVC006 M01/M03 A3008 RMK AO2
                 P0001 T10111028 =
2018-12-14 20:54 METAR KCAR 150154Z AUTO 19007KT 1SM -SN BR BKN006 OVC011 M01/M03 A3010 RMK AO2
                 SLP206 P0003 T10111028 =
2018-12-14 20:39 METAR KCAR 150139Z AUTO 19007KT 1 1/4SM -SN BR SCT006 BKN012 OVC028 M01/M03
                 A3011 RMK AO2 P0001 T10111028 =
2018-12-14 20:31 METAR KCAR 150131Z AUTO 19006KT 1 1/4SM -SN BR SCT006 BKN028 OVC033 M01/M03
                 A3012 RMK AO2 P0001 T10111033 =
2018-12-14 20:14 METAR KCAR 150114Z AUTO 19007KT 1 1/4SM -SN BR FEW008 FEW021 OVC031 M02/M03
                 A3013 RMK AO2 P0000 T10171033 =
2018-12-14 20:05 METAR KCAR 150105Z AUTO 19006KT 2 1/2SM -SN BR FEW008 OVC030 M02/M04 A3013 RMK
                 AO2 P0000 T10171039 =
2018-12-14 19:57 METAR KCAR 150057Z AUTO 19005KT 1 1/2SM -SN BR OVC030 M02/M04 A3014 =
2018-12-14 19:54 METAR KCAR 150054Z AUTO 19006KT 1 1/4SM -SN BR OVC028 M02/M04 A3014 RMK AO2
                 SNB05 SLP220 P0001 T10221039 =
2018-12-14 19:47 METAR KCAR 150047Z AUTO 18005KT 1 1/2SM -SN BR OVC026 M02/M04 A3014 RMK AO2
                 SNB05 P0001 T10221039 =
2018-12-14 19:34 METAR KCAR 150034Z AUTO 18005KT 1SM -SN BR OVC028 M03/M04 A3014 RMK AO2 SNB05
                 P0000 T10281044 =
2018-12-14 19:24 METAR KCAR 150024Z AUTO 17004KT 1 3/4SM -SN BR OVC032 M03/M05 A3015 RMK AO2
                 SNB05 P0000 T10281050 =
2018-12-14 18:54 METAR KCAR 142354Z AUTO 17004KT 10SM BKN055 BKN070 OVC090 M03/M05 A3016 RMK AO2
                 SNE43 SLP229 P0002 60002 T10281050 11028 21067 58021 =
2018-12-14 18:43 METAR KCAR 142343Z AUTO 18004KT 7SM BKN041 BKN070 OVC090 M03/M05 A3017 RMK AO2
                 SNE43 P0002 T10281050 =
2018-12-14 18:32 METAR KCAR 142332Z AUTO 18004KT 3SM -SN BR BKN023 OVC090 M03/M05 A3016 RMK AO2
                 P0002 T10331050 =
2018-12-14 18:27 METAR KCAR 142327Z AUTO 17004KT 1 1/2SM -SN BR BKN023 OVC090 M03/M05 A3016 RMK
                 AO2 P0002 T10331050 =
2018-12-14 18:20 METAR KCAR 142320Z AUTO 18004KT 3/4SM -SN BR BKN016 OVC026 M03/M06 A3017 RMK AO2
                 P0001 T10331056 =
2018-12-14 18:03 METAR KCAR 142303Z AUTO 18006KT 1 1/4SM -SN SCT020 OVC025 M03/M07 A3017 RMK AO2
                 P0001 T10331067 =
2018-12-14 17:54 METAR KCAR 142254Z AUTO 18006KT 2 1/2SM -SN OVC027 M03/M07 A3018 RMK AO2 SNB44
                 SLP236 P0000 T10331072 =
2018-12-14 17:42 METAR KCAR 142242Z AUTO 18004KT 9SM OVC029 M03/M08 A3019 RMK AO2 T10331078 =
2018-12-14 16:54 METAR KCAR 142154Z AUTO 17005KT 10SM OVC032 M04/M09 A3021 RMK AO2 SLP246
                 T10391089 =
2018-12-14 15:54 METAR KCAR 142054Z AUTO 17006KT 10SM OVC050 M05/M10 A3022 RMK AO2 SLP253
                 T10501100 58022 =
2018-12-14 14:54 METAR KCAR 141954Z AUTO 17005KT 10SM FEW032 OVC049 M06/M11 A3025 RMK AO2 SLP264
                 T10611111 =
2018-12-14 13:54 METAR KCAR 141854Z AUTO 17006KT 10SM BKN030 OVC048 M06/M11 A3027 RMK AO2 SLP268
                 T10611111 =
2018-12-14 12:54 METAR KCAR 141754Z AUTO 17005KT 10SM SCT031 OVC046 M07/M12 A3029 RMK AO2 SLP276
                 T10671117 11067 21161 56035 =
2018-12-14 12:35 METAR KCAR 141735Z AUTO 18007KT 10SM SCT026 BKN033 OVC044 M07/M11 A3029 RMK AO2
                 T10671111 =
2018-12-14 11:54 METAR KCAR 141654Z AUTO 14003KT 10SM OVC020 M07/M12 A3031 RMK AO2 SLP284
                 T10721122 =
2018-12-14 11:34 METAR KCAR 141634Z AUTO 19004KT 10SM BKN019 OVC033 M08/M13 A3033 RMK AO2
                 T10781128 =
2018-12-14 11:13 METAR KCAR 141613Z AUTO 15003KT 10SM OVC033 M08/M13 A3033 RMK AO2 T10831133 =
2018-12-14 10:54 METAR KCAR 141554Z AUTO 12004KT 10SM FEW014 OVC029 M09/M13 A3034 RMK AO2 PRESFR
                 SLP293 T10891133 =
2018-12-14 10:46 METAR KCAR 141546Z AUTO 00000KT 9SM SCT014 OVC027 M09/M13 A3035 RMK AO2 PRESFR
                 T10891133 =
2018-12-14 10:32 METAR KCAR 141532Z AUTO 00000KT 10SM BKN013 OVC025 M09/M14 A3037 RMK AO2
                 T10941139 =
2018-12-14 09:54 METAR KCAR 141454Z AUTO 00000KT 10SM OVC023 M11/M15 A3040 RMK AO2 SLP313
                 T11061150 58003 =
2018-12-14 08:54 METAR KCAR 141354Z AUTO 00000KT 10SM OVC023 M12/M16 A3039 RMK AO2 SLP312
                 T11171156 =

Support USWX by starting your Amazon purchase here.